sensor_id;sensor_type;location;lat;lon;timestamp;P1;durP1;ratioP1;P2;durP2;ratioP2
76039;SDS011;64736;50.462;4.850;2023-12-20T00:01:04;11.60;;;4.07;;
76039;SDS011;64736;50.462;4.850;2023-12-20T00:03:29;7.80;;;3.28;;
76039;SDS011;64736;50.462;4.850;2023-12-20T00:05:55;9.13;;;3.45;;
76039;SDS011;64736;50.462;4.850;2023-12-20T00:08:21;18.27;;;2.72;;
76039;SDS011;64736;50.462;4.850;2023-12-20T00:10:47;7.35;;;2.20;;
76039;SDS011;64736;50.462;4.850;2023-12-20T00:13:12;10.88;;;3.22;;
76039;SDS011;64736;50.462;4.850;2023-12-20T00:15:38;7.68;;;2.80;;
76039;SDS011;64736;50.462;4.850;2023-12-20T00:18:03;7.03;;;2.00;;
76039;SDS011;64736;50.462;4.850;2023-12-20T00:20:30;8.88;;;2.65;;
76039;SDS011;64736;50.462;4.850;2023-12-20T00:22:56;6.05;;;2.58;;
76039;SDS011;64736;50.462;4.850;2023-12-20T00:25:25;8.50;;;2.45;;
76039;SDS011;64736;50.462;4.850;2023-12-20T00:27:51;7.72;;;2.60;;
76039;SDS011;64736;50.462;4.850;2023-12-20T00:30:17;5.22;;;2.65;;
76039;SDS011;64736;50.462;4.850;2023-12-20T00:32:43;7.15;;;2.50;;
76039;SDS011;64736;50.462;4.850;2023-12-20T00:35:12;10.75;;;2.88;;
76039;SDS011;64736;50.462;4.850;2023-12-20T00:37:38;7.85;;;2.67;;
76039;SDS011;64736;50.462;4.850;2023-12-20T00:40:05;6.70;;;2.08;;
76039;SDS011;64736;50.462;4.850;2023-12-20T00:42:31;8.13;;;3.10;;
76039;SDS011;64736;50.462;4.850;2023-12-20T00:44:58;12.20;;;3.60;;
76039;SDS011;64736;50.462;4.850;2023-12-20T00:47:24;7.07;;;2.17;;
76039;SDS011;64736;50.462;4.850;2023-12-20T00:49:50;7.60;;;2.40;;
76039;SDS011;64736;50.462;4.850;2023-12-20T00:52:15;6.45;;;2.60;;
76039;SDS011;64736;50.462;4.850;2023-12-20T00:54:42;9.20;;;3.28;;
76039;SDS011;64736;50.462;4.850;2023-12-20T00:57:08;9.48;;;3.75;;
76039;SDS011;64736;50.462;4.850;2023-12-20T00:59:34;7.57;;;3.08;;
76039;SDS011;64736;50.462;4.850;2023-12-20T01:02:00;6.95;;;2.10;;
76039;SDS011;64736;50.462;4.850;2023-12-20T01:04:26;8.63;;;2.15;;
76039;SDS011;64736;50.462;4.850;2023-12-20T01:06:52;9.65;;;2.80;;
76039;SDS011;64736;50.462;4.850;2023-12-20T01:09:18;7.32;;;2.40;;
76039;SDS011;64736;50.462;4.850;2023-12-20T01:11:45;9.45;;;3.40;;
76039;SDS011;64736;50.462;4.850;2023-12-20T01:14:13;8.32;;;2.85;;
76039;SDS011;64736;50.462;4.850;2023-12-20T01:16:38;6.18;;;2.60;;
76039;SDS011;64736;50.462;4.850;2023-12-20T01:19:04;10.98;;;3.28;;
76039;SDS011;64736;50.462;4.850;2023-12-20T01:21:30;7.07;;;2.30;;
76039;SDS011;64736;50.462;4.850;2023-12-20T01:23:56;5.30;;;2.30;;
76039;SDS011;64736;50.462;4.850;2023-12-20T01:26:21;8.02;;;2.30;;
76039;SDS011;64736;50.462;4.850;2023-12-20T01:28:47;6.13;;;2.67;;
76039;SDS011;64736;50.462;4.850;2023-12-20T01:31:13;7.63;;;2.30;;
76039;SDS011;64736;50.462;4.850;2023-12-20T01:33:38;8.05;;;2.50;;
76039;SDS011;64736;50.462;4.850;2023-12-20T01:36:04;7.22;;;2.47;;
76039;SDS011;64736;50.462;4.850;2023-12-20T01:38:30;4.68;;;2.13;;
76039;SDS011;64736;50.462;4.850;2023-12-20T01:40:55;8.45;;;2.67;;
76039;SDS011;64736;50.462;4.850;2023-12-20T01:43:21;8.35;;;3.25;;
76039;SDS011;64736;50.462;4.850;2023-12-20T01:45:47;8.95;;;2.60;;
76039;SDS011;64736;50.462;4.850;2023-12-20T01:48:13;6.68;;;2.08;;
76039;SDS011;64736;50.462;4.850;2023-12-20T01:50:41;7.20;;;2.63;;
76039;SDS011;64736;50.462;4.850;2023-12-20T01:53:08;6.28;;;2.42;;
76039;SDS011;64736;50.462;4.850;2023-12-20T01:55:38;10.27;;;2.90;;
76039;SDS011;64736;50.462;4.850;2023-12-20T01:58:05;9.80;;;3.08;;
76039;SDS011;64736;50.462;4.850;2023-12-20T02:00:32;8.05;;;2.78;;
76039;SDS011;64736;50.462;4.850;2023-12-20T02:03:02;9.25;;;2.78;;
76039;SDS011;64736;50.462;4.850;2023-12-20T02:05:31;7.57;;;2.95;;
76039;SDS011;64736;50.462;4.850;2023-12-20T02:07:57;7.13;;;3.15;;
76039;SDS011;64736;50.462;4.850;2023-12-20T02:10:23;9.95;;;2.90;;
76039;SDS011;64736;50.462;4.850;2023-12-20T02:12:49;8.90;;;3.17;;
76039;SDS011;64736;50.462;4.850;2023-12-20T02:15:15;10.45;;;3.38;;
76039;SDS011;64736;50.462;4.850;2023-12-20T02:17:41;10.70;;;3.35;;
76039;SDS011;64736;50.462;4.850;2023-12-20T02:20:07;8.68;;;3.63;;
76039;SDS011;64736;50.462;4.850;2023-12-20T02:22:32;9.60;;;3.53;;
76039;SDS011;64736;50.462;4.850;2023-12-20T02:24:58;9.18;;;3.15;;
76039;SDS011;64736;50.462;4.850;2023-12-20T02:27:24;7.32;;;3.40;;
76039;SDS011;64736;50.462;4.850;2023-12-20T02:29:50;11.88;;;3.67;;
76039;SDS011;64736;50.462;4.850;2023-12-20T02:32:17;9.27;;;4.10;;
76039;SDS011;64736;50.462;4.850;2023-12-20T02:34:43;7.03;;;3.95;;
76039;SDS011;64736;50.462;4.850;2023-12-20T02:37:09;9.48;;;3.55;;
76039;SDS011;64736;50.462;4.850;2023-12-20T02:39:34;8.07;;;3.47;;
76039;SDS011;64736;50.462;4.850;2023-12-20T02:42:00;8.52;;;3.40;;
76039;SDS011;64736;50.462;4.850;2023-12-20T02:44:26;8.02;;;3.95;;
76039;SDS011;64736;50.462;4.850;2023-12-20T02:46:51;10.43;;;4.15;;
76039;SDS011;64736;50.462;4.850;2023-12-20T02:49:17;9.55;;;4.05;;
76039;SDS011;64736;50.462;4.850;2023-12-20T02:51:43;12.77;;;4.97;;
76039;SDS011;64736;50.462;4.850;2023-12-20T02:54:09;11.13;;;5.50;;
76039;SDS011;64736;50.462;4.850;2023-12-20T02:56:34;14.45;;;4.80;;
76039;SDS011;64736;50.462;4.850;2023-12-20T02:59:00;13.05;;;5.00;;
76039;SDS011;64736;50.462;4.850;2023-12-20T03:01:27;12.38;;;5.63;;
76039;SDS011;64736;50.462;4.850;2023-12-20T03:03:54;15.50;;;6.68;;
76039;SDS011;64736;50.462;4.850;2023-12-20T03:06:20;20.92;;;7.07;;
76039;SDS011;64736;50.462;4.850;2023-12-20T03:08:46;13.30;;;5.78;;
76039;SDS011;64736;50.462;4.850;2023-12-20T03:11:11;16.58;;;7.10;;
76039;SDS011;64736;50.462;4.850;2023-12-20T03:13:37;17.02;;;7.25;;
76039;SDS011;64736;50.462;4.850;2023-12-20T03:16:09;18.52;;;7.28;;
76039;SDS011;64736;50.462;4.850;2023-12-20T03:18:36;17.35;;;7.57;;
76039;SDS011;64736;50.462;4.850;2023-12-20T03:21:01;21.58;;;7.82;;
76039;SDS011;64736;50.462;4.850;2023-12-20T03:23:28;12.95;;;7.35;;
76039;SDS011;64736;50.462;4.850;2023-12-20T03:25:55;18.77;;;8.10;;
76039;SDS011;64736;50.462;4.850;2023-12-20T03:28:21;15.90;;;7.75;;
76039;SDS011;64736;50.462;4.850;2023-12-20T03:30:48;19.00;;;7.97;;
76039;SDS011;64736;50.462;4.850;2023-12-20T03:33:14;16.23;;;8.00;;
76039;SDS011;64736;50.462;4.850;2023-12-20T03:35:40;18.13;;;8.98;;
76039;SDS011;64736;50.462;4.850;2023-12-20T03:38:05;21.77;;;8.07;;
76039;SDS011;64736;50.462;4.850;2023-12-20T03:40:31;19.73;;;8.27;;
76039;SDS011;64736;50.462;4.850;2023-12-20T03:42:57;19.13;;;8.00;;
76039;SDS011;64736;50.462;4.850;2023-12-20T03:45:23;15.57;;;7.50;;
76039;SDS011;64736;50.462;4.850;2023-12-20T03:47:48;15.77;;;7.80;;
76039;SDS011;64736;50.462;4.850;2023-12-20T03:50:15;11.63;;;5.80;;
76039;SDS011;64736;50.462;4.850;2023-12-20T03:52:40;16.10;;;7.13;;
76039;SDS011;64736;50.462;4.850;2023-12-20T03:55:06;17.70;;;8.02;;
76039;SDS011;64736;50.462;4.850;2023-12-20T03:57:32;13.18;;;7.30;;
76039;SDS011;64736;50.462;4.850;2023-12-20T03:59:58;16.08;;;7.53;;
76039;SDS011;64736;50.462;4.850;2023-12-20T04:02:24;15.88;;;7.50;;
76039;SDS011;64736;50.462;4.850;2023-12-20T04:04:49;17.40;;;7.40;;
76039;SDS011;64736;50.462;4.850;2023-12-20T04:07:15;15.00;;;7.47;;
76039;SDS011;64736;50.462;4.850;2023-12-20T04:09:41;14.18;;;7.53;;
76039;SDS011;64736;50.462;4.850;2023-12-20T04:12:07;18.40;;;8.10;;
76039;SDS011;64736;50.462;4.850;2023-12-20T04:14:32;17.95;;;7.55;;
76039;SDS011;64736;50.462;4.850;2023-12-20T04:16:58;18.08;;;8.23;;
76039;SDS011;64736;50.462;4.850;2023-12-20T04:19:24;15.13;;;7.47;;
76039;SDS011;64736;50.462;4.850;2023-12-20T04:21:49;14.77;;;6.88;;
76039;SDS011;64736;50.462;4.850;2023-12-20T04:24:15;12.88;;;6.82;;
76039;SDS011;64736;50.462;4.850;2023-12-20T04:26:41;16.33;;;7.53;;
76039;SDS011;64736;50.462;4.850;2023-12-20T04:29:07;18.40;;;9.60;;
76039;SDS011;64736;50.462;4.850;2023-12-20T04:31:32;22.60;;;11.40;;
76039;SDS011;64736;50.462;4.850;2023-12-20T04:33:58;25.90;;;13.70;;
76039;SDS011;64736;50.462;4.850;2023-12-20T04:36:24;22.27;;;13.55;;
76039;SDS011;64736;50.462;4.850;2023-12-20T04:38:52;25.25;;;13.15;;
76039;SDS011;64736;50.462;4.850;2023-12-20T04:41:18;31.92;;;17.00;;
76039;SDS011;64736;50.462;4.850;2023-12-20T04:43:44;26.42;;;15.77;;
76039;SDS011;64736;50.462;4.850;2023-12-20T04:46:10;24.67;;;12.60;;
76039;SDS011;64736;50.462;4.850;2023-12-20T04:48:36;30.90;;;15.77;;
76039;SDS011;64736;50.462;4.850;2023-12-20T04:51:02;26.45;;;15.20;;
76039;SDS011;64736;50.462;4.850;2023-12-20T04:53:27;28.00;;;13.15;;
76039;SDS011;64736;50.462;4.850;2023-12-20T04:55:53;25.00;;;12.80;;
76039;SDS011;64736;50.462;4.850;2023-12-20T04:58:19;24.23;;;11.30;;
76039;SDS011;64736;50.462;4.850;2023-12-20T05:00:44;18.55;;;9.18;;
76039;SDS011;64736;50.462;4.850;2023-12-20T05:03:10;18.38;;;8.60;;
76039;SDS011;64736;50.462;4.850;2023-12-20T05:05:36;19.83;;;8.13;;
76039;SDS011;64736;50.462;4.850;2023-12-20T05:08:01;17.50;;;7.93;;
76039;SDS011;64736;50.462;4.850;2023-12-20T05:10:27;15.10;;;6.55;;
76039;SDS011;64736;50.462;4.850;2023-12-20T05:12:53;12.27;;;6.07;;
76039;SDS011;64736;50.462;4.850;2023-12-20T05:15:19;13.82;;;6.78;;
76039;SDS011;64736;50.462;4.850;2023-12-20T05:17:45;16.35;;;6.70;;
76039;SDS011;64736;50.462;4.850;2023-12-20T05:20:10;12.32;;;6.45;;
76039;SDS011;64736;50.462;4.850;2023-12-20T05:22:36;13.80;;;5.82;;
76039;SDS011;64736;50.462;4.850;2023-12-20T05:25:02;13.40;;;5.72;;
76039;SDS011;64736;50.462;4.850;2023-12-20T05:27:27;12.80;;;5.65;;
76039;SDS011;64736;50.462;4.850;2023-12-20T05:29:53;15.70;;;5.82;;
76039;SDS011;64736;50.462;4.850;2023-12-20T05:34:49;8.88;;;4.40;;
76039;SDS011;64736;50.462;4.850;2023-12-20T05:37:14;12.80;;;5.55;;
76039;SDS011;64736;50.462;4.850;2023-12-20T05:39:40;12.52;;;5.35;;
76039;SDS011;64736;50.462;4.850;2023-12-20T05:42:06;13.13;;;5.40;;
76039;SDS011;64736;50.462;4.850;2023-12-20T05:44:31;13.15;;;6.25;;
76039;SDS011;64736;50.462;4.850;2023-12-20T05:46:57;9.20;;;4.07;;
76039;SDS011;64736;50.462;4.850;2023-12-20T05:49:23;11.20;;;3.70;;
76039;SDS011;64736;50.462;4.850;2023-12-20T05:51:49;14.48;;;5.90;;
76039;SDS011;64736;50.462;4.850;2023-12-20T05:54:16;13.32;;;5.25;;
76039;SDS011;64736;50.462;4.850;2023-12-20T05:56:42;9.20;;;4.93;;
76039;SDS011;64736;50.462;4.850;2023-12-20T05:59:07;9.50;;;3.55;;
76039;SDS011;64736;50.462;4.850;2023-12-20T06:01:33;9.13;;;4.10;;
76039;SDS011;64736;50.462;4.850;2023-12-20T06:03:59;11.75;;;4.43;;
76039;SDS011;64736;50.462;4.850;2023-12-20T06:06:25;10.93;;;3.92;;
76039;SDS011;64736;50.462;4.850;2023-12-20T06:08:50;9.32;;;3.95;;
76039;SDS011;64736;50.462;4.850;2023-12-20T06:11:16;12.18;;;4.93;;
76039;SDS011;64736;50.462;4.850;2023-12-20T06:13:42;9.57;;;3.95;;
76039;SDS011;64736;50.462;4.850;2023-12-20T06:16:07;7.55;;;3.72;;
76039;SDS011;64736;50.462;4.850;2023-12-20T06:18:33;12.35;;;3.83;;
76039;SDS011;64736;50.462;4.850;2023-12-20T06:20:59;8.70;;;3.97;;
76039;SDS011;64736;50.462;4.850;2023-12-20T06:23:25;9.23;;;3.67;;
76039;SDS011;64736;50.462;4.850;2023-12-20T06:25:52;8.57;;;3.65;;
76039;SDS011;64736;50.462;4.850;2023-12-20T06:28:18;9.80;;;3.47;;
76039;SDS011;64736;50.462;4.850;2023-12-20T06:30:43;9.85;;;4.07;;
76039;SDS011;64736;50.462;4.850;2023-12-20T06:33:09;10.55;;;3.97;;
76039;SDS011;64736;50.462;4.850;2023-12-20T06:35:36;8.07;;;3.90;;
76039;SDS011;64736;50.462;4.850;2023-12-20T06:38:02;9.40;;;4.63;;
76039;SDS011;64736;50.462;4.850;2023-12-20T06:40:28;9.52;;;4.10;;
76039;SDS011;64736;50.462;4.850;2023-12-20T06:42:54;13.82;;;4.18;;
76039;SDS011;64736;50.462;4.850;2023-12-20T06:45:20;10.50;;;4.28;;
76039;SDS011;64736;50.462;4.850;2023-12-20T06:47:45;7.13;;;3.30;;
76039;SDS011;64736;50.462;4.850;2023-12-20T06:50:11;8.98;;;3.28;;
76039;SDS011;64736;50.462;4.850;2023-12-20T06:52:37;9.15;;;4.13;;
76039;SDS011;64736;50.462;4.850;2023-12-20T06:55:03;9.40;;;3.80;;
76039;SDS011;64736;50.462;4.850;2023-12-20T06:57:29;8.35;;;3.70;;
76039;SDS011;64736;50.462;4.850;2023-12-20T06:59:55;7.47;;;3.40;;
76039;SDS011;64736;50.462;4.850;2023-12-20T07:02:21;10.15;;;4.05;;
76039;SDS011;64736;50.462;4.850;2023-12-20T07:04:47;8.13;;;3.42;;
76039;SDS011;64736;50.462;4.850;2023-12-20T07:07:13;8.52;;;3.88;;
76039;SDS011;64736;50.462;4.850;2023-12-20T07:09:39;8.35;;;3.50;;
76039;SDS011;64736;50.462;4.850;2023-12-20T07:12:08;16.13;;;5.18;;
76039;SDS011;64736;50.462;4.850;2023-12-20T07:14:34;10.25;;;3.00;;
76039;SDS011;64736;50.462;4.850;2023-12-20T07:17:00;12.00;;;3.83;;
76039;SDS011;64736;50.462;4.850;2023-12-20T07:19:26;12.40;;;3.70;;
76039;SDS011;64736;50.462;4.850;2023-12-20T07:21:51;14.02;;;5.35;;
76039;SDS011;64736;50.462;4.850;2023-12-20T07:24:18;6.40;;;2.55;;
76039;SDS011;64736;50.462;4.850;2023-12-20T07:26:44;11.68;;;3.58;;
76039;SDS011;64736;50.462;4.850;2023-12-20T07:29:09;10.15;;;3.67;;
76039;SDS011;64736;50.462;4.850;2023-12-20T07:31:35;8.07;;;3.05;;
76039;SDS011;64736;50.462;4.850;2023-12-20T07:34:01;7.70;;;2.65;;
76039;SDS011;64736;50.462;4.850;2023-12-20T07:36:26;5.97;;;2.38;;
76039;SDS011;64736;50.462;4.850;2023-12-20T07:38:52;9.20;;;3.20;;
76039;SDS011;64736;50.462;4.850;2023-12-20T07:41:18;7.68;;;2.80;;
76039;SDS011;64736;50.462;4.850;2023-12-20T07:43:46;10.60;;;3.03;;
76039;SDS011;64736;50.462;4.850;2023-12-20T07:46:12;10.27;;;2.90;;
76039;SDS011;64736;50.462;4.850;2023-12-20T07:48:38;7.35;;;2.28;;
76039;SDS011;64736;50.462;4.850;2023-12-20T07:51:04;8.50;;;3.03;;
76039;SDS011;64736;50.462;4.850;2023-12-20T07:53:32;6.05;;;2.58;;
76039;SDS011;64736;50.462;4.850;2023-12-20T07:55:58;8.40;;;2.75;;
76039;SDS011;64736;50.462;4.850;2023-12-20T07:58:24;8.18;;;2.25;;
76039;SDS011;64736;50.462;4.850;2023-12-20T08:00:49;7.18;;;2.75;;
76039;SDS011;64736;50.462;4.850;2023-12-20T08:03:15;7.80;;;2.60;;
76039;SDS011;64736;50.462;4.850;2023-12-20T08:05:41;6.85;;;2.90;;
76039;SDS011;64736;50.462;4.850;2023-12-20T08:08:06;8.00;;;2.17;;
76039;SDS011;64736;50.462;4.850;2023-12-20T08:10:35;7.00;;;2.28;;
76039;SDS011;64736;50.462;4.850;2023-12-20T08:13:00;5.40;;;1.77;;
76039;SDS011;64736;50.462;4.850;2023-12-20T08:15:26;10.57;;;2.70;;
76039;SDS011;64736;50.462;4.850;2023-12-20T08:17:51;6.93;;;2.35;;
76039;SDS011;64736;50.462;4.850;2023-12-20T08:20:17;7.00;;;2.00;;
76039;SDS011;64736;50.462;4.850;2023-12-20T08:22:42;8.80;;;2.58;;
76039;SDS011;64736;50.462;4.850;2023-12-20T08:25:08;10.73;;;2.45;;
76039;SDS011;64736;50.462;4.850;2023-12-20T08:27:34;4.85;;;2.17;;
76039;SDS011;64736;50.462;4.850;2023-12-20T08:30:05;5.97;;;2.47;;
76039;SDS011;64736;50.462;4.850;2023-12-20T08:32:31;8.70;;;2.17;;
76039;SDS011;64736;50.462;4.850;2023-12-20T08:34:57;6.97;;;2.80;;
76039;SDS011;64736;50.462;4.850;2023-12-20T08:37:23;8.00;;;3.25;;
76039;SDS011;64736;50.462;4.850;2023-12-20T08:39:49;7.00;;;2.40;;
76039;SDS011;64736;50.462;4.850;2023-12-20T08:42:14;7.20;;;2.33;;
76039;SDS011;64736;50.462;4.850;2023-12-20T08:44:40;7.55;;;2.40;;
76039;SDS011;64736;50.462;4.850;2023-12-20T08:47:06;6.72;;;2.13;;
76039;SDS011;64736;50.462;4.850;2023-12-20T08:49:31;4.10;;;1.58;;
76039;SDS011;64736;50.462;4.850;2023-12-20T08:51:57;9.75;;;2.50;;
76039;SDS011;64736;50.462;4.850;2023-12-20T08:54:23;7.95;;;2.60;;
76039;SDS011;64736;50.462;4.850;2023-12-20T08:56:48;7.30;;;2.20;;
76039;SDS011;64736;50.462;4.850;2023-12-20T08:59:14;6.63;;;2.33;;
76039;SDS011;64736;50.462;4.850;2023-12-20T09:01:40;7.82;;;2.05;;
76039;SDS011;64736;50.462;4.850;2023-12-20T09:04:05;6.03;;;1.92;;
76039;SDS011;64736;50.462;4.850;2023-12-20T09:06:31;9.32;;;2.47;;
76039;SDS011;64736;50.462;4.850;2023-12-20T09:08:57;6.72;;;2.03;;
76039;SDS011;64736;50.462;4.850;2023-12-20T09:11:23;5.60;;;2.00;;
76039;SDS011;64736;50.462;4.850;2023-12-20T09:13:50;6.20;;;1.98;;
76039;SDS011;64736;50.462;4.850;2023-12-20T09:16:16;7.28;;;2.20;;
76039;SDS011;64736;50.462;4.850;2023-12-20T09:18:42;4.57;;;1.90;;
76039;SDS011;64736;50.462;4.850;2023-12-20T09:21:10;8.25;;;2.20;;
76039;SDS011;64736;50.462;4.850;2023-12-20T09:23:36;8.23;;;2.08;;
76039;SDS011;64736;50.462;4.850;2023-12-20T09:26:02;3.70;;;1.55;;
76039;SDS011;64736;50.462;4.850;2023-12-20T09:28:28;5.65;;;1.98;;
76039;SDS011;64736;50.462;4.850;2023-12-20T09:30:53;6.65;;;2.08;;
76039;SDS011;64736;50.462;4.850;2023-12-20T09:33:19;4.53;;;1.63;;
76039;SDS011;64736;50.462;4.850;2023-12-20T09:35:45;8.13;;;2.95;;
76039;SDS011;64736;50.462;4.850;2023-12-20T09:38:10;5.20;;;1.73;;
76039;SDS011;64736;50.462;4.850;2023-12-20T09:40:38;8.88;;;2.10;;
76039;SDS011;64736;50.462;4.850;2023-12-20T09:45:39;7.65;;;2.00;;
76039;SDS011;64736;50.462;4.850;2023-12-20T09:48:06;8.27;;;3.15;;
76039;SDS011;64736;50.462;4.850;2023-12-20T09:50:35;6.47;;;2.75;;
76039;SDS011;64736;50.462;4.850;2023-12-20T09:53:01;6.85;;;2.33;;
76039;SDS011;64736;50.462;4.850;2023-12-20T09:55:30;4.90;;;2.10;;
76039;SDS011;64736;50.462;4.850;2023-12-20T09:57:56;10.15;;;2.03;;
76039;SDS011;64736;50.462;4.850;2023-12-20T10:00:23;7.10;;;2.33;;
76039;SDS011;64736;50.462;4.850;2023-12-20T10:02:58;7.10;;;2.05;;
76039;SDS011;64736;50.462;4.850;2023-12-20T10:05:29;6.28;;;2.80;;
76039;SDS011;64736;50.462;4.850;2023-12-20T10:07:57;7.13;;;2.00;;
76039;SDS011;64736;50.462;4.850;2023-12-20T10:10:23;7.95;;;2.08;;
76039;SDS011;64736;50.462;4.850;2023-12-20T10:13:11;8.27;;;2.70;;
76039;SDS011;64736;50.462;4.850;2023-12-20T10:15:37;9.40;;;2.65;;
76039;SDS011;64736;50.462;4.850;2023-12-20T10:18:03;9.05;;;3.25;;
76039;SDS011;64736;50.462;4.850;2023-12-20T10:20:30;8.00;;;2.45;;
76039;SDS011;64736;50.462;4.850;2023-12-20T10:22:57;8.02;;;2.00;;
76039;SDS011;64736;50.462;4.850;2023-12-20T10:25:24;10.05;;;1.88;;
76039;SDS011;64736;50.462;4.850;2023-12-20T10:27:50;6.70;;;1.83;;
76039;SDS011;64736;50.462;4.850;2023-12-20T10:30:37;11.35;;;1.98;;
76039;SDS011;64736;50.462;4.850;2023-12-20T10:33:03;4.30;;;1.33;;
76039;SDS011;64736;50.462;4.850;2023-12-20T10:35:30;8.82;;;1.80;;
76039;SDS011;64736;50.462;4.850;2023-12-20T10:37:56;8.93;;;2.35;;
76039;SDS011;64736;50.462;4.850;2023-12-20T10:40:23;5.95;;;2.05;;
76039;SDS011;64736;50.462;4.850;2023-12-20T10:42:50;5.78;;;1.33;;
76039;SDS011;64736;50.462;4.850;2023-12-20T10:45:16;5.00;;;1.60;;
76039;SDS011;64736;50.462;4.850;2023-12-20T10:47:46;8.10;;;1.85;;
76039;SDS011;64736;50.462;4.850;2023-12-20T10:50:12;6.45;;;2.10;;
76039;SDS011;64736;50.462;4.850;2023-12-20T10:52:38;10.75;;;2.38;;
76039;SDS011;64736;50.462;4.850;2023-12-20T10:55:06;6.78;;;2.00;;
76039;SDS011;64736;50.462;4.850;2023-12-20T10:57:32;5.78;;;1.55;;
76039;SDS011;64736;50.462;4.850;2023-12-20T11:00:01;9.48;;;2.20;;
76039;SDS011;64736;50.462;4.850;2023-12-20T11:02:33;6.72;;;2.15;;
76039;SDS011;64736;50.462;4.850;2023-12-20T11:05:54;6.55;;;1.60;;
76039;SDS011;64736;50.462;4.850;2023-12-20T11:08:19;6.65;;;2.13;;
76039;SDS011;64736;50.462;4.850;2023-12-20T11:13:58;9.52;;;2.08;;
76039;SDS011;64736;50.462;4.850;2023-12-20T11:16:37;8.95;;;2.47;;
76039;SDS011;64736;50.462;4.850;2023-12-20T11:19:06;5.85;;;1.95;;
76039;SDS011;64736;50.462;4.850;2023-12-20T11:21:32;7.90;;;2.33;;
76039;SDS011;64736;50.462;4.850;2023-12-20T11:23:59;7.63;;;2.03;;
76039;SDS011;64736;50.462;4.850;2023-12-20T11:26:29;5.15;;;1.55;;
76039;SDS011;64736;50.462;4.850;2023-12-20T11:32:03;14.57;;;2.10;;
76039;SDS011;64736;50.462;4.850;2023-12-20T11:37:31;7.28;;;1.33;;
76039;SDS011;64736;50.462;4.850;2023-12-20T11:40:08;10.70;;;2.70;;
76039;SDS011;64736;50.462;4.850;2023-12-20T11:42:40;7.07;;;2.10;;
76039;SDS011;64736;50.462;4.850;2023-12-20T11:45:10;5.78;;;1.85;;
76039;SDS011;64736;50.462;4.850;2023-12-20T11:47:40;8.73;;;2.50;;
76039;SDS011;64736;50.462;4.850;2023-12-20T11:50:07;5.55;;;1.42;;
76039;SDS011;64736;50.462;4.850;2023-12-20T11:52:33;5.40;;;1.95;;
76039;SDS011;64736;50.462;4.850;2023-12-20T11:54:59;6.03;;;2.05;;
76039;SDS011;64736;50.462;4.850;2023-12-20T11:57:24;4.78;;;1.95;;
76039;SDS011;64736;50.462;4.850;2023-12-20T11:59:50;11.50;;;2.55;;
76039;SDS011;64736;50.462;4.850;2023-12-20T12:02:16;7.93;;;2.15;;
76039;SDS011;64736;50.462;4.850;2023-12-20T12:04:41;12.13;;;3.10;;
76039;SDS011;64736;50.462;4.850;2023-12-20T12:07:07;10.18;;;3.20;;
76039;SDS011;64736;50.462;4.850;2023-12-20T12:09:33;8.57;;;3.40;;
76039;SDS011;64736;50.462;4.850;2023-12-20T12:12:00;7.93;;;1.85;;
76039;SDS011;64736;50.462;4.850;2023-12-20T12:14:26;9.85;;;2.58;;
76039;SDS011;64736;50.462;4.850;2023-12-20T12:16:52;10.02;;;2.63;;
76039;SDS011;64736;50.462;4.850;2023-12-20T12:19:25;5.63;;;2.05;;
76039;SDS011;64736;50.462;4.850;2023-12-20T12:22:13;9.52;;;3.20;;
76039;SDS011;64736;50.462;4.850;2023-12-20T12:24:39;7.22;;;2.13;;
76039;SDS011;64736;50.462;4.850;2023-12-20T12:27:06;7.05;;;2.40;;
76039;SDS011;64736;50.462;4.850;2023-12-20T12:29:32;8.57;;;2.50;;
76039;SDS011;64736;50.462;4.850;2023-12-20T12:31:59;14.32;;;2.80;;
76039;SDS011;64736;50.462;4.850;2023-12-20T12:34:26;8.90;;;2.20;;
76039;SDS011;64736;50.462;4.850;2023-12-20T12:36:53;9.20;;;2.40;;
76039;SDS011;64736;50.462;4.850;2023-12-20T12:39:19;7.05;;;2.22;;
76039;SDS011;64736;50.462;4.850;2023-12-20T12:41:45;8.98;;;2.47;;
76039;SDS011;64736;50.462;4.850;2023-12-20T12:44:11;7.50;;;2.22;;
76039;SDS011;64736;50.462;4.850;2023-12-20T12:46:36;6.10;;;2.30;;
76039;SDS011;64736;50.462;4.850;2023-12-20T12:49:02;8.73;;;2.35;;
76039;SDS011;64736;50.462;4.850;2023-12-20T12:51:29;7.70;;;2.63;;
76039;SDS011;64736;50.462;4.850;2023-12-20T12:53:54;9.70;;;2.42;;
76039;SDS011;64736;50.462;4.850;2023-12-20T12:56:20;8.75;;;2.47;;
76039;SDS011;64736;50.462;4.850;2023-12-20T12:58:47;9.27;;;2.55;;
76039;SDS011;64736;50.462;4.850;2023-12-20T13:01:13;9.20;;;3.20;;
76039;SDS011;64736;50.462;4.850;2023-12-20T13:03:39;9.88;;;3.30;;
76039;SDS011;64736;50.462;4.850;2023-12-20T13:06:05;7.53;;;3.35;;
76039;SDS011;64736;50.462;4.850;2023-12-20T13:08:31;10.52;;;2.53;;
76039;SDS011;64736;50.462;4.850;2023-12-20T13:10:57;7.60;;;2.80;;
76039;SDS011;64736;50.462;4.850;2023-12-20T13:13:26;10.10;;;3.22;;
76039;SDS011;64736;50.462;4.850;2023-12-20T13:15:52;8.35;;;2.90;;
76039;SDS011;64736;50.462;4.850;2023-12-20T13:18:20;9.05;;;2.85;;
76039;SDS011;64736;50.462;4.850;2023-12-20T13:20:46;9.23;;;3.53;;
76039;SDS011;64736;50.462;4.850;2023-12-20T13:23:13;6.03;;;2.75;;
76039;SDS011;64736;50.462;4.850;2023-12-20T13:25:39;9.68;;;3.42;;
76039;SDS011;64736;50.462;4.850;2023-12-20T13:28:06;10.27;;;4.10;;
76039;SDS011;64736;50.462;4.850;2023-12-20T13:30:31;8.75;;;3.65;;
76039;SDS011;64736;50.462;4.850;2023-12-20T13:32:57;8.65;;;3.20;;
76039;SDS011;64736;50.462;4.850;2023-12-20T13:35:23;11.10;;;3.17;;
76039;SDS011;64736;50.462;4.850;2023-12-20T13:37:48;10.25;;;3.33;;
76039;SDS011;64736;50.462;4.850;2023-12-20T13:40:14;8.13;;;3.05;;
76039;SDS011;64736;50.462;4.850;2023-12-20T13:42:40;9.65;;;3.13;;
76039;SDS011;64736;50.462;4.850;2023-12-20T13:45:06;11.68;;;3.03;;
76039;SDS011;64736;50.462;4.850;2023-12-20T13:47:33;9.50;;;3.20;;
76039;SDS011;64736;50.462;4.850;2023-12-20T13:49:59;8.88;;;3.10;;
76039;SDS011;64736;50.462;4.850;2023-12-20T13:52:24;9.38;;;3.47;;
76039;SDS011;64736;50.462;4.850;2023-12-20T13:54:50;7.78;;;2.70;;
76039;SDS011;64736;50.462;4.850;2023-12-20T13:57:16;6.35;;;3.00;;
76039;SDS011;64736;50.462;4.850;2023-12-20T13:59:41;10.82;;;4.85;;
76039;SDS011;64736;50.462;4.850;2023-12-20T14:02:07;5.80;;;2.60;;
76039;SDS011;64736;50.462;4.850;2023-12-20T14:04:33;8.05;;;2.80;;
76039;SDS011;64736;50.462;4.850;2023-12-20T14:06:59;8.27;;;2.70;;
76039;SDS011;64736;50.462;4.850;2023-12-20T14:09:24;8.90;;;2.60;;
76039;SDS011;64736;50.462;4.850;2023-12-20T14:11:50;12.60;;;3.60;;
76039;SDS011;64736;50.462;4.850;2023-12-20T14:14:16;9.57;;;3.45;;
76039;SDS011;64736;50.462;4.850;2023-12-20T14:16:42;10.93;;;3.67;;
76039;SDS011;64736;50.462;4.850;2023-12-20T14:19:11;9.77;;;3.50;;
76039;SDS011;64736;50.462;4.850;2023-12-20T14:21:36;13.35;;;3.08;;
76039;SDS011;64736;50.462;4.850;2023-12-20T14:24:02;10.50;;;3.53;;
76039;SDS011;64736;50.462;4.850;2023-12-20T14:26:29;11.25;;;3.47;;
76039;SDS011;64736;50.462;4.850;2023-12-20T14:28:55;9.50;;;4.13;;
76039;SDS011;64736;50.462;4.850;2023-12-20T14:31:21;9.00;;;3.03;;
76039;SDS011;64736;50.462;4.850;2023-12-20T14:33:49;8.73;;;2.88;;
76039;SDS011;64736;50.462;4.850;2023-12-20T14:36:16;15.65;;;3.53;;
76039;SDS011;64736;50.462;4.850;2023-12-20T14:38:43;14.77;;;3.63;;
76039;SDS011;64736;50.462;4.850;2023-12-20T14:41:09;9.10;;;3.72;;
76039;SDS011;64736;50.462;4.850;2023-12-20T14:43:35;10.15;;;3.38;;
76039;SDS011;64736;50.462;4.850;2023-12-20T14:46:00;10.63;;;3.53;;
76039;SDS011;64736;50.462;4.850;2023-12-20T14:48:26;10.82;;;3.90;;
76039;SDS011;64736;50.462;4.850;2023-12-20T14:50:53;11.63;;;3.28;;
76039;SDS011;64736;50.462;4.850;2023-12-20T14:53:19;11.43;;;3.38;;